Time;durP1;ratioP1;P1;durP2;ratioP2;P2;SDS_P1;SDS_P2;PMS_P1;PMS_P2;Temp;Humidity;BMP_temperature;BMP_pressure;BME280_temperature;BME280_humidity;BME280_pressure;Samples;Min_cycle;Max_cycle;Signal;HPM_P1;HPM_P2
2021/12/20 04:03:11;;;;;;;22.30;3.45;;;5.80;86.60;;;;;;5112824;27;20168;-50
2021/12/20 04:05:37;;;;;;;18.08;4.70;;;5.90;86.50;;;;;;5113179;28;20430;-49
2021/12/20 04:08:06;;;;;;;36.25;5.70;;;6.10;86.00;;;;;;5110453;28;20114;-48
2021/12/20 04:10:32;;;;;;;20.20;3.22;;;6.20;85.50;;;;;;5112008;28;20035;-49
2021/12/20 04:12:57;;;;;;;21.63;5.13;;;6.20;85.00;;;;;;5112457;28;20028;-48
2021/12/20 04:15:24;;;;;;;25.60;3.65;;;6.20;85.30;;;;;;5112083;28;20027;-48
2021/12/20 04:17:49;;;;;;;24.20;5.35;;;6.30;85.10;;;;;;5111411;28;20032;-51
2021/12/20 04:20:15;;;;;;;15.25;3.70;;;6.30;85.10;;;;;;5111713;28;20111;-52
2021/12/20 04:22:41;;;;;;;16.60;3.22;;;6.30;85.00;;;;;;5111776;28;20404;-50
2021/12/20 04:25:07;;;;;;;9.73;2.83;;;6.30;85.10;;;;;;5111582;28;20110;-49
2021/12/20 04:27:33;;;;;;;20.92;4.15;;;6.40;84.80;;;;;;5111673;28;20102;-51
2021/12/20 04:29:59;;;;;;;22.17;7.95;;;6.30;85.00;;;;;;5111901;28;20532;-48
2021/12/20 04:32:24;;;;;;;18.95;4.10;;;6.30;85.30;;;;;;5111739;28;20103;-39
2021/12/20 04:34:50;;;;;;;16.77;3.97;;;6.30;85.10;;;;;;5111690;28;20032;-40
2021/12/20 04:37:16;;;;;;;26.60;5.75;;;6.20;85.50;;;;;;5110138;28;20024;-39
2021/12/20 04:39:42;;;;;;;12.55;4.80;;;6.20;85.50;;;;;;5112288;28;20028;-38
2021/12/20 04:42:11;;;;;;;21.15;5.15;;;6.30;85.40;;;;;;5109679;28;20024;-37
2021/12/20 04:44:37;;;;;;;11.88;3.15;;;6.30;85.70;;;;;;5110827;28;20035;-46
2021/12/20 04:47:03;;;;;;;29.52;7.25;;;6.30;85.30;;;;;;5110716;28;20020;-39
2021/12/20 04:49:28;;;;;;;24.52;7.20;;;6.20;85.30;;;;;;5110943;28;20020;-38
2021/12/20 04:51:54;;;;;;;16.88;4.22;;;6.20;86.00;;;;;;5111241;28;20079;-38
2021/12/20 04:54:21;;;;;;;29.42;5.03;;;6.30;85.50;;;;;;5111405;28;20519;-39
2021/12/20 04:56:47;;;;;;;20.48;4.00;;;6.20;85.80;;;;;;5110450;28;20055;-38
2021/12/20 04:59:13;;;;;;;14.48;4.35;;;6.20;85.10;;;;;;5110894;28;20095;-38
2021/12/20 05:01:38;;;;;;;25.08;5.95;;;6.10;85.10;;;;;;5110430;28;20131;-39
2021/12/20 05:04:04;;;;;;;29.98;4.85;;;6.20;85.10;;;;;;5110853;28;20206;-38
2021/12/20 05:06:32;;;;;;;13.63;2.97;;;6.10;85.20;;;;;;5110249;28;20080;-38
2021/12/20 05:08:58;;;;;;;22.75;3.95;;;6.00;85.50;;;;;;5110879;28;20016;-38
2021/12/20 05:11:24;;;;;;;29.77;3.80;;;6.10;85.30;;;;;;5110765;28;20498;-38
2021/12/20 05:13:50;;;;;;;22.38;4.05;;;6.10;84.90;;;;;;5098425;28;20050;-38
2021/12/20 05:16:16;;;;;;;24.42;6.25;;;6.00;85.00;;;;;;5097018;28;20032;-40
2021/12/20 05:18:42;;;;;;;25.13;7.68;;;6.00;85.20;;;;;;5096245;28;20091;-37
2021/12/20 05:21:07;;;;;;;22.17;5.20;;;6.00;85.70;;;;;;5096788;28;20418;-38
2021/12/20 05:23:33;;;;;;;25.45;5.68;;;5.90;85.80;;;;;;5096902;28;20024;-39
2021/12/20 05:25:59;;;;;;;27.17;4.40;;;5.80;85.90;;;;;;5097390;28;20032;-38
2021/12/20 05:28:25;;;;;;;30.38;5.93;;;5.80;86.20;;;;;;5097049;28;20172;-40
2021/12/20 05:30:52;;;;;;;24.92;6.75;;;5.80;86.30;;;;;;5096611;28;20020;-38
2021/12/20 05:33:19;;;;;;;20.67;4.13;;;5.70;86.30;;;;;;5096983;28;20032;-38
2021/12/20 05:35:45;;;;;;;26.40;6.53;;;5.60;86.60;;;;;;5096498;28;20024;-39
2021/12/20 05:38:11;;;;;;;34.70;4.93;;;5.50;87.10;;;;;;5096831;28;20361;-38
2021/12/20 05:40:36;;;;;;;29.77;5.22;;;5.40;87.30;;;;;;5096217;28;20023;-38
2021/12/20 05:43:03;;;;;;;20.75;5.60;;;5.40;87.20;;;;;;5096534;28;20051;-37
2021/12/20 05:45:29;;;;;;;25.83;6.47;;;5.40;87.00;;;;;;5095367;28;20020;-38
2021/12/20 05:47:55;;;;;;;31.98;6.25;;;5.20;87.70;;;;;;5095935;28;20399;-38
2021/12/20 05:50:22;;;;;;;22.08;3.85;;;5.30;87.70;;;;;;5096193;28;20107;-38
2021/12/20 05:52:48;;;;;;;24.00;5.25;;;5.20;87.70;;;;;;5097156;28;20074;-39
2021/12/20 05:55:14;;;;;;;17.60;4.45;;;5.20;88.10;;;;;;5096094;28;20028;-40
2021/12/20 05:57:40;;;;;;;26.75;4.97;;;5.20;88.00;;;;;;5094380;28;20448;-38
2021/12/20 06:00:12;;;;;;;25.55;4.88;;;5.10;87.90;;;;;;5095468;28;20085;-38
2021/12/20 06:02:39;;;;;;;33.20;5.82;;;5.00;88.10;;;;;;5095625;28;20044;-37
2021/12/20 06:05:05;;;;;;;20.45;4.32;;;5.00;88.40;;;;;;5096146;28;20081;-38
2021/12/20 06:07:31;;;;;;;32.35;5.75;;;4.90;88.80;;;;;;5096336;28;20072;-39
2021/12/20 06:09:57;;;;;;;29.20;5.40;;;4.90;88.80;;;;;;5096068;28;20038;-39
2021/12/20 06:12:23;;;;;;;24.08;5.28;;;4.80;88.90;;;;;;5095602;28;20476;-40
2021/12/20 06:14:48;;;;;;;35.60;7.05;;;4.80;89.10;;;;;;5095355;28;20086;-39
2021/12/20 06:17:14;;;;;;;39.75;7.60;;;4.60;89.40;;;;;;5095267;28;20444;-38
2021/12/20 06:19:40;;;;;;;31.60;7.68;;;4.70;89.60;;;;;;5095317;28;20144;-39
2021/12/20 06:22:07;;;;;;;36.13;6.47;;;4.70;89.50;;;;;;5095619;28;20028;-40
2021/12/20 06:24:33;;;;;;;39.20;4.65;;;4.60;89.60;;;;;;5093837;28;20032;-39
2021/12/20 06:27:00;;;;;;;31.77;5.15;;;4.60;89.80;;;;;;5095095;28;20533;-39
2021/12/20 06:29:25;;;;;;;24.67;5.35;;;4.60;89.80;;;;;;5095573;28;20048;-38
2021/12/20 06:31:51;;;;;;;30.63;5.13;;;4.40;90.00;;;;;;5095566;28;20024;-40
2021/12/20 06:34:17;;;;;;;21.90;5.15;;;4.40;90.20;;;;;;5094920;28;20055;-38
2021/12/20 06:36:43;;;;;;;42.47;5.85;;;4.40;90.30;;;;;;5094738;28;20038;-40
2021/12/20 06:39:09;;;;;;;38.83;5.53;;;4.40;90.30;;;;;;5095126;28;20028;-38
2021/12/20 06:41:36;;;;;;;22.35;5.85;;;4.30;90.50;;;;;;5093216;28;20017;-38
2021/12/20 06:44:04;;;;;;;32.60;7.03;;;4.30;90.40;;;;;;5076536;28;20020;-38
2021/12/20 06:46:31;;;;;;;27.77;5.63;;;4.30;90.50;;;;;;5094989;28;20044;-39
2021/12/20 06:48:57;;;;;;;21.27;5.70;;;4.20;90.60;;;;;;5093160;28;20020;-41
2021/12/20 06:51:23;;;;;;;40.90;7.82;;;4.10;90.50;;;;;;5094233;28;20038;-39
2021/12/20 06:53:49;;;;;;;54.10;17.60;;;4.10;90.80;;;;;;5094672;28;20384;-39
2021/12/20 06:56:14;;;;;;;30.42;7.15;;;4.00;91.20;;;;;;5093792;28;20028;-39
2021/12/20 06:58:40;;;;;;;44.17;11.05;;;4.10;91.20;;;;;;5093808;28;20020;-39
2021/12/20 07:01:06;;;;;;;34.47;9.60;;;4.00;91.00;;;;;;5092823;28;20048;-39
2021/12/20 07:03:32;;;;;;;45.42;10.25;;;4.00;91.00;;;;;;5094954;28;20046;-39
2021/12/20 07:05:57;;;;;;;39.30;10.80;;;4.00;91.10;;;;;;5094352;28;20024;-39
2021/12/20 07:08:23;;;;;;;29.90;6.85;;;4.00;91.10;;;;;;5094426;28;20027;-39
2021/12/20 07:10:49;;;;;;;21.33;6.28;;;3.90;91.10;;;;;;5092932;28;20088;-41
2021/12/20 07:13:14;;;;;;;27.27;6.78;;;3.90;91.40;;;;;;5094116;28;20035;-39
2021/12/20 07:15:41;;;;;;;26.02;4.97;;;3.80;91.30;;;;;;5094105;28;20104;-38
2021/12/20 07:18:07;;;;;;;31.60;6.30;;;3.90;91.40;;;;;;5092373;28;20031;-38
2021/12/20 07:20:33;;;;;;;19.45;5.85;;;3.80;91.30;;;;;;5094680;28;20043;-39
2021/12/20 07:22:59;;;;;;;30.67;6.35;;;3.80;91.50;;;;;;5093157;28;20103;-40
2021/12/20 07:25:25;;;;;;;26.80;5.45;;;3.80;91.40;;;;;;5093506;28;20031;-39
2021/12/20 07:27:52;;;;;;;33.40;7.13;;;3.80;91.40;;;;;;5093955;28;20024;-39
2021/12/20 07:30:19;;;;;;;39.05;8.18;;;3.80;91.40;;;;;;5094539;28;20020;-38
2021/12/20 07:32:45;;;;;;;43.80;8.52;;;3.80;91.30;;;;;;5093722;28;20028;-40
2021/12/20 07:35:12;;;;;;;44.88;10.65;;;3.80;91.30;;;;;;5093656;28;20028;-40
2021/12/20 07:37:38;;;;;;;35.97;8.80;;;3.80;91.30;;;;;;5094275;28;20077;-37
2021/12/20 07:40:05;;;;;;;27.13;6.05;;;3.70;91.30;;;;;;5094336;28;20020;-38
2021/12/20 07:42:31;;;;;;;31.38;8.82;;;3.80;91.40;;;;;;5093618;28;20520;-39
2021/12/20 07:44:57;;;;;;;31.15;6.60;;;3.80;91.40;;;;;;5093374;28;20144;-38
2021/12/20 07:47:23;;;;;;;30.70;7.28;;;3.70;91.50;;;;;;5093823;28;20028;-39
2021/12/20 07:49:49;;;;;;;28.55;8.23;;;3.70;91.60;;;;;;5092375;28;20020;-38
2021/12/20 07:52:15;;;;;;;28.10;7.47;;;3.80;91.60;;;;;;5093276;28;20141;-39
2021/12/20 07:54:40;;;;;;;21.50;7.32;;;3.80;91.30;;;;;;5093397;28;20055;-39
2021/12/20 07:57:06;;;;;;;32.03;7.75;;;3.80;91.20;;;;;;5093544;28;20408;-38
2021/12/20 07:59:32;;;;;;;38.15;7.60;;;3.70;91.30;;;;;;5093261;28;20463;-38
2021/12/20 14:03:06;;;;;;;4.85;1.75;;;5.80;59.90;;;;;;5091434;28;20112;-51
2021/12/20 14:05:37;;;;;;;4.75;1.90;;;5.80;59.70;;;;;;5090459;28;20028;-48
2021/12/20 14:08:13;;;;;;;7.60;1.80;;;5.80;59.60;;;;;;5072233;28;20093;-52
2021/12/20 14:10:40;;;;;;;23.63;2.45;;;5.80;59.80;;;;;;5091141;28;20074;-49
2021/12/20 14:13:14;;;;;;;8.75;2.13;;;5.90;59.60;;;;;;5090694;28;20035;-49
2021/12/20 14:15:44;;;;;;;9.32;2.22;;;6.00;59.50;;;;;;5088617;28;20033;-52
2021/12/20 14:18:20;;;;;;;7.43;2.38;;;6.10;59.50;;;;;;5075651;28;20075;-49
2021/12/20 14:20:58;;;;;;;5.55;2.15;;;6.10;59.70;;;;;;5070639;28;20117;-51
2021/12/20 14:23:30;;;;;;;12.27;4.10;;;6.30;58.40;;;;;;5070081;28;20380;-50
2021/12/20 14:26:08;;;;;;;11.07;2.67;;;6.20;58.90;;;;;;5051923;28;20032;-50
2021/12/20 14:29:01;;;;;;;9.15;2.13;;;6.00;59.20;;;;;;5052352;28;20055;-50
2021/12/20 14:31:36;;;;;;;7.80;1.85;;;5.90;59.80;;;;;;5069376;28;20043;-49
2021/12/20 14:34:05;;;;;;;3.63;1.88;;;5.90;59.70;;;;;;5070448;28;20449;-49
2021/12/20 14:36:39;;;;;;;4.35;1.73;;;6.00;57.90;;;;;;5069563;28;20074;-50
2021/12/20 14:39:39;;;;;;;13.77;2.08;;;5.80;58.20;;;;;;5069856;28;20465;-51
2021/12/20 14:42:05;;;;;;;5.13;2.30;;;5.90;57.90;;;;;;5069474;28;20579;-50
2021/12/20 14:44:41;;;;;;;11.52;2.17;;;5.80;58.40;;;;;;5052940;28;20044;-49
2021/12/20 14:47:13;;;;;;;17.30;4.55;;;5.80;58.20;;;;;;5070109;28;20035;-51
2021/12/20 14:49:49;;;;;;;10.35;2.72;;;5.80;58.50;;;;;;5070777;28;20017;-52
2021/12/20 14:52:20;;;;;;;8.80;2.60;;;5.70;59.20;;;;;;5070133;28;20029;-51
2021/12/20 14:54:52;;;;;;;6.00;3.97;;;5.70;60.30;;;;;;5069816;28;20036;-50
2021/12/20 14:57:26;;;;;;;10.77;3.90;;;5.50;62.40;;;;;;5069659;28;20047;-49
2021/12/20 14:59:52;;;;;;;8.35;3.45;;;5.40;63.30;;;;;;5069771;28;20124;-49
2021/12/20 15:02:25;;;;;;;15.23;5.20;;;5.50;64.40;;;;;;5069204;28;20423;-51
2021/12/20 15:04:52;;;;;;;11.90;4.15;;;5.70;64.40;;;;;;5069028;28;20036;-49
2021/12/20 15:07:18;;;;;;;14.75;6.53;;;5.60;65.60;;;;;;5068513;28;20025;-51
2021/12/20 15:09:44;;;;;;;17.00;5.05;;;5.40;66.90;;;;;;5069379;28;20087;-52
2021/12/20 15:12:09;;;;;;;16.13;4.93;;;5.30;67.90;;;;;;5068875;28;20070;-53
2021/12/20 15:14:35;;;;;;;13.27;5.45;;;5.30;68.60;;;;;;5055939;28;20033;-48
2021/12/20 15:17:01;;;;;;;17.42;6.32;;;5.30;68.60;;;;;;5056264;28;20529;-49
2021/12/20 15:19:26;;;;;;;22.52;5.35;;;5.40;68.20;;;;;;5056249;28;20082;-53
2021/12/20 15:21:53;;;;;;;18.40;4.68;;;5.40;68.60;;;;;;5056459;28;20060;-50
2021/12/20 15:24:20;;;;;;;20.98;6.97;;;5.40;68.60;;;;;;5055960;28;20063;-52
2021/12/20 15:26:46;;;;;;;14.52;5.05;;;5.40;68.60;;;;;;5056244;28;20017;-51
2021/12/20 15:29:12;;;;;;;16.85;6.70;;;5.30;68.70;;;;;;5038241;28;20044;-51
2021/12/20 15:31:38;;;;;;;21.33;6.00;;;5.20;69.00;;;;;;5038389;28;20397;-51
2021/12/20 15:34:06;;;;;;;20.60;5.45;;;5.30;69.30;;;;;;5055555;28;20029;-52
2021/12/20 15:36:32;;;;;;;27.35;6.68;;;5.20;69.40;;;;;;5055382;28;20021;-51
2021/12/20 15:38:58;;;;;;;17.88;7.35;;;5.10;69.70;;;;;;5055554;28;20029;-50
2021/12/20 15:41:24;;;;;;;21.00;7.60;;;5.10;70.10;;;;;;5056032;28;20035;-50
2021/12/20 15:43:51;;;;;;;20.55;9.32;;;5.10;70.90;;;;;;5055312;28;20071;-50
2021/12/20 15:46:19;;;;;;;16.83;6.43;;;5.00;71.70;;;;;;5056048;28;20095;-50
2021/12/20 15:48:46;;;;;;;15.32;6.00;;;4.90;72.30;;;;;;5055093;28;20029;-49
2021/12/20 15:51:12;;;;;;;20.33;7.32;;;4.90;72.80;;;;;;5055789;28;20075;-48
2021/12/20 15:53:37;;;;;;;25.33;8.40;;;4.80;73.70;;;;;;5055239;28;20029;-52
2021/12/20 15:56:05;;;;;;;20.15;7.60;;;4.80;74.40;;;;;;5055824;28;20090;-51
2021/12/20 15:58:31;;;;;;;33.55;10.02;;;4.80;74.50;;;;;;5037513;28;20029;-50
2021/12/20 16:00:58;;;;;;;28.58;10.63;;;4.70;75.00;;;;;;5054234;28;20051;-48
2021/12/20 16:03:24;;;;;;;19.60;8.80;;;4.60;75.60;;;;;;5054926;28;20474;-51
2021/12/20 16:05:50;;;;;;;21.38;8.50;;;4.60;75.90;;;;;;5036645;28;20028;-49
2021/12/20 16:08:16;;;;;;;26.83;9.02;;;4.60;76.40;;;;;;5055365;28;20065;-50
2021/12/20 16:10:42;;;;;;;23.15;8.98;;;4.50;76.50;;;;;;5037137;28;20029;-53
2021/12/20 16:13:09;;;;;;;27.48;9.88;;;4.50;76.90;;;;;;5055097;28;20027;-49
2021/12/20 16:15:35;;;;;;;24.80;9.40;;;4.40;77.00;;;;;;5054553;28;20021;-53
2021/12/20 16:18:01;;;;;;;22.05;7.70;;;4.30;77.50;;;;;;5054770;28;20115;-49
2021/12/20 16:20:27;;;;;;;28.98;12.02;;;4.30;77.60;;;;;;5054924;28;20061;-49
2021/12/20 16:22:53;;;;;;;24.42;8.85;;;4.30;78.20;;;;;;5054684;28;20036;-52
2021/12/20 16:25:20;;;;;;;19.35;8.25;;;4.30;78.00;;;;;;5053315;28;20104;-51
2021/12/20 16:27:48;;;;;;;28.58;10.05;;;4.30;78.20;;;;;;5036653;28;20038;-50
2021/12/20 16:30:20;;;;;;;25.63;8.32;;;4.20;78.50;;;;;;5054733;28;20388;-48
2021/12/20 16:32:47;;;;;;;27.40;8.45;;;4.10;78.60;;;;;;5054884;28;20107;-49
2021/12/20 16:35:15;;;;;;;34.00;10.10;;;4.10;78.50;;;;;;5054378;28;20021;-50
2021/12/20 16:37:41;;;;;;;24.02;9.07;;;4.10;78.70;;;;;;5053676;28;20537;-54
2021/12/20 16:40:10;;;;;;;30.25;12.85;;;4.00;78.80;;;;;;5054037;28;20146;-50
2021/12/20 16:42:36;;;;;;;25.38;8.02;;;3.90;78.80;;;;;;5054481;28;20032;-50
2021/12/20 16:45:04;;;;;;;20.50;9.82;;;3.90;79.00;;;;;;5054195;28;20061;-48
2021/12/20 16:47:49;;;;;;;21.67;9.23;;;3.80;79.00;;;;;;5054022;28;20024;-53
2021/12/20 16:50:19;;;;;;;22.98;11.07;;;3.80;79.10;;;;;;5053938;28;20021;-51
2021/12/20 16:52:45;;;;;;;28.85;9.10;;;3.80;79.20;;;;;;5054700;28;20504;-52
2021/12/20 16:55:11;;;;;;;26.63;8.77;;;3.80;79.50;;;;;;5054457;28;20025;-48
2021/12/20 16:57:37;;;;;;;18.00;8.32;;;3.80;79.40;;;;;;5054015;28;20063;-50
2021/12/20 17:00:09;;;;;;;26.48;7.95;;;3.70;79.20;;;;;;5054638;28;20060;-51
2021/12/20 17:05:45;;;;;;;22.77;9.23;;;3.60;80.00;;;;;;5054496;28;20052;-52
2021/12/20 17:08:15;;;;;;;33.60;10.57;;;3.60;79.90;;;;;;5054602;28;20035;-51
2021/12/20 17:10:42;;;;;;;32.00;11.20;;;3.60;80.00;;;;;;5054360;28;20021;-50
2021/12/20 17:13:12;;;;;;;29.85;10.25;;;3.60;80.20;;;;;;5054110;28;20048;-52
2021/12/20 17:15:42;;;;;;;25.70;10.07;;;3.50;80.70;;;;;;5053817;28;20162;-50
2021/12/20 17:18:14;;;;;;;30.90;10.75;;;3.50;80.90;;;;;;5053874;28;20100;-50
2021/12/20 17:20:42;;;;;;;28.17;9.40;;;3.40;81.00;;;;;;5054438;28;20108;-52
2021/12/20 17:23:08;;;;;;;29.92;8.57;;;3.30;81.60;;;;;;5054377;28;20033;-50
2021/12/20 17:25:34;;;;;;;33.22;10.10;;;3.30;81.70;;;;;;5054648;28;20325;-51
2021/12/20 17:28:00;;;;;;;32.70;10.38;;;3.40;81.40;;;;;;5054553;28;20104;-52
2021/12/20 17:30:27;;;;;;;42.95;10.18;;;3.40;81.50;;;;;;5054822;28;20052;-51
2021/12/20 17:32:53;;;;;;;26.10;11.63;;;3.30;81.70;;;;;;5054371;28;20025;-54
2021/12/20 17:35:19;;;;;;;41.20;13.80;;;3.30;81.80;;;;;;5053565;28;20075;-51
2021/12/20 17:37:45;;;;;;;36.63;15.13;;;3.30;82.10;;;;;;5054352;28;20469;-53
2021/12/20 17:40:16;;;;;;;42.28;15.05;;;3.20;82.30;;;;;;5054919;28;20029;-50
2021/12/20 17:42:42;;;;;;;40.08;17.27;;;3.20;82.50;;;;;;5054168;28;20060;-49
2021/12/20 17:45:12;;;;;;;41.88;16.38;;;3.20;82.70;;;;;;5053402;28;20366;-51
2021/12/20 17:47:38;;;;;;;44.13;17.05;;;3.10;82.70;;;;;;5053106;28;20048;-52
2021/12/20 17:50:07;;;;;;;41.15;15.48;;;3.10;82.80;;;;;;5053349;28;20029;-51
2021/12/20 17:52:33;;;;;;;44.50;15.05;;;3.00;83.10;;;;;;5054560;28;20027;-49
2021/12/20 17:54:58;;;;;;;36.67;15.35;;;3.00;83.30;;;;;;5053892;28;20029;-50
2021/12/20 17:57:24;;;;;;;48.53;17.70;;;3.00;83.30;;;;;;5053519;28;20148;-52
2021/12/20 17:59:50;;;;;;;42.15;18.08;;;2.90;83.50;;;;;;5053673;28;20071;-50
2021/12/20 18:02:22;;;;;;;37.03;17.45;;;2.80;83.80;;;;;;5053765;28;20049;-49
2021/12/20 18:04:56;;;;;;;37.78;17.75;;;2.80;84.00;;;;;;5054142;28;20373;-49
2021/12/20 18:07:24;;;;;;;50.17;17.13;;;2.80;84.20;;;;;;5053482;28;20067;-51
2021/12/20 18:09:50;;;;;;;40.88;17.58;;;2.70;84.30;;;;;;5053427;28;20100;-52
2021/12/20 18:12:15;;;;;;;41.60;16.65;;;2.70;84.70;;;;;;5053599;28;20466;-49
2021/12/20 18:14:41;;;;;;;34.45;15.50;;;2.60;84.80;;;;;;5053442;28;20071;-51
2021/12/20 18:17:07;;;;;;;33.50;15.13;;;2.60;85.00;;;;;;5053445;28;20033;-52
2021/12/20 18:19:33;;;;;;;33.95;14.13;;;2.50;85.10;;;;;;5053230;28;20025;-49
2021/12/20 18:21:58;;;;;;;47.38;15.00;;;2.50;85.30;;;;;;5053409;28;20057;-49
2021/12/20 18:24:24;;;;;;;36.17;13.75;;;2.50;85.40;;;;;;5053523;28;20018;-48
2021/12/20 18:26:50;;;;;;;35.45;13.75;;;2.50;85.40;;;;;;5053406;28;20022;-50
2021/12/20 18:29:15;;;;;;;36.63;15.32;;;2.40;85.50;;;;;;5053290;28;20092;-51
2021/12/20 18:31:41;;;;;;;23.98;12.40;;;2.40;85.60;;;;;;5053451;28;20029;-48
2021/12/20 18:34:07;;;;;;;40.65;16.10;;;2.30;85.60;;;;;;5053052;28;20033;-47
2021/12/20 18:36:33;;;;;;;28.98;12.95;;;2.40;85.80;;;;;;5053478;28;20079;-48
2021/12/20 18:39:03;;;;;;;42.30;15.85;;;2.30;85.90;;;;;;5053033;28;20477;-49
2021/12/20 18:41:28;;;;;;;40.92;14.05;;;2.30;86.00;;;;;;5052936;28;20029;-48
2021/12/20 18:43:56;;;;;;;45.22;14.40;;;2.20;86.00;;;;;;5053402;28;20025;-48
2021/12/20 18:46:22;;;;;;;34.92;13.50;;;2.20;86.10;;;;;;5035124;28;20147;-48
2021/12/20 18:48:49;;;;;;;36.78;15.43;;;2.20;86.10;;;;;;5055133;28;20044;-48
2021/12/20 18:51:17;;;;;;;27.50;13.65;;;2.20;86.20;;;;;;5057542;28;20098;-49
2021/12/20 18:53:43;;;;;;;33.13;16.17;;;2.10;86.30;;;;;;5057052;28;20032;-48
2021/12/20 18:56:08;;;;;;;30.50;14.32;;;2.10;86.20;;;;;;5056784;28;20025;-48
2021/12/20 18:58:34;;;;;;;35.53;15.00;;;2.10;86.20;;;;;;5056811;28;20381;-47
2021/12/20 19:01:03;;;;;;;41.28;16.25;;;2.10;86.20;;;;;;5057246;28;20041;-52
2021/12/20 19:03:29;;;;;;;30.38;13.30;;;2.10;86.10;;;;;;5057923;28;20025;-52
2021/12/20 19:05:55;;;;;;;44.90;19.35;;;2.10;86.00;;;;;;5038985;28;20441;-49
2021/12/20 19:08:25;;;;;;;40.13;14.48;;;2.10;86.00;;;;;;5056712;28;20021;-51
2021/12/20 19:11:11;;;;;;;43.42;16.90;;;2.00;85.80;;;;;;5056803;28;20017;-51
2021/12/20 19:13:48;;;;;;;38.38;15.32;;;2.00;85.70;;;;;;5057024;28;20040;-51
2021/12/20 19:16:17;;;;;;;42.63;14.95;;;1.90;85.80;;;;;;5056946;28;20040;-49
2021/12/20 19:18:44;;;;;;;45.88;17.10;;;2.00;86.10;;;;;;5056316;28;20036;-49
2021/12/20 19:21:09;;;;;;;43.20;17.33;;;2.00;86.00;;;;;;5038725;28;20029;-53
2021/12/20 19:23:37;;;;;;;32.35;16.10;;;1.90;86.20;;;;;;5056753;28;20495;-49
2021/12/20 19:26:03;;;;;;;48.88;17.98;;;1.90;86.10;;;;;;5056216;28;20025;-49
2021/12/20 19:28:28;;;;;;;47.85;18.55;;;2.00;86.10;;;;;;5056780;28;20021;-53
2021/12/20 19:30:56;;;;;;;48.97;17.83;;;1.90;86.10;;;;;;5055951;28;20021;-53
2021/12/20 19:33:24;;;;;;;44.47;19.45;;;1.80;86.20;;;;;;5055963;28;20078;-51
2021/12/20 19:35:52;;;;;;;49.05;22.33;;;1.70;86.60;;;;;;5056626;28;20044;-50
2021/12/20 19:38:18;;;;;;;48.85;22.92;;;1.80;87.10;;;;;;5057115;28;20017;-53
2021/12/20 19:40:43;;;;;;;46.08;19.30;;;1.70;87.30;;;;;;5056398;28;20067;-50
2021/12/20 19:43:10;;;;;;;44.30;21.30;;;1.50;87.40;;;;;;5055964;28;20515;-52
2021/12/20 19:45:36;;;;;;;44.10;20.05;;;1.50;87.80;;;;;;5057054;28;20454;-50
2021/12/20 19:48:03;;;;;;;39.65;21.45;;;1.40;88.20;;;;;;5056462;28;20031;-50
2021/12/20 19:50:29;;;;;;;43.33;18.77;;;1.30;88.50;;;;;;5056432;28;20044;-50
2021/12/20 19:52:55;;;;;;;42.20;19.17;;;1.30;88.80;;;;;;5055770;28;20025;-53
2021/12/20 19:55:21;;;;;;;32.78;18.17;;;1.30;89.00;;;;;;5056231;28;20021;-50
2021/12/20 19:57:46;;;;;;;38.10;20.55;;;1.30;89.40;;;;;;5056260;28;20458;-50
2021/12/20 20:00:14;;;;;;;48.42;19.92;;;1.30;89.20;;;;;;5056182;28;20028;-53
2021/12/20 20:02:39;;;;;;;53.38;21.23;;;1.20;89.30;;;;;;5055581;28;20095;-50
2021/12/20 20:05:06;;;;;;;45.03;21.20;;;1.30;89.40;;;;;;5056013;28;20041;-54
2021/12/20 20:07:32;;;;;;;62.13;24.05;;;1.30;89.30;;;;;;5055939;28;20078;-50
2021/12/20 20:09:57;;;;;;;46.63;19.98;;;1.30;88.50;;;;;;5056515;28;20471;-48
2021/12/20 20:12:23;;;;;;;52.03;21.27;;;1.30;88.70;;;;;;5056378;28;20476;-50
2021/12/20 20:14:49;;;;;;;43.25;20.75;;;1.30;88.70;;;;;;5055676;28;20025;-52
2021/12/20 20:17:16;;;;;;;54.65;20.17;;;1.10;88.80;;;;;;5055733;28;20529;-50
2021/12/20 20:19:42;;;;;;;56.30;23.67;;;1.00;89.40;;;;;;5055825;28;20078;-50
2021/12/20 20:22:10;;;;;;;53.72;20.90;;;0.90;89.70;;;;;;5055806;28;20028;-51
2021/12/20 20:24:40;;;;;;;41.25;19.63;;;0.90;90.10;;;;;;5055059;28;20353;-52
2021/12/20 20:27:08;;;;;;;41.22;20.65;;;1.00;89.90;;;;;;5055232;28;20078;-49
2021/12/20 20:29:34;;;;;;;40.47;17.52;;;0.80;90.30;;;;;;5055326;28;20116;-53
2021/12/20 20:32:00;;;;;;;52.25;20.05;;;0.80;90.20;;;;;;5055420;28;20131;-50
2021/12/20 20:34:26;;;;;;;50.72;22.67;;;0.70;90.40;;;;;;5055437;28;20111;-49
2021/12/20 20:36:52;;;;;;;48.50;19.83;;;0.70;90.60;;;;;;5054935;28;20406;-50
2021/12/20 20:39:18;;;;;;;47.08;19.50;;;0.70;90.70;;;;;;5055062;28;20025;-50
2021/12/20 20:41:45;;;;;;;43.58;19.33;;;0.70;90.70;;;;;;5054969;28;20163;-51
2021/12/20 20:44:11;;;;;;;47.90;19.60;;;0.70;90.90;;;;;;5037438;28;20025;-49
2021/12/20 20:46:37;;;;;;;48.17;20.13;;;0.80;90.60;;;;;;5054477;28;20489;-53
2021/12/20 20:49:03;;;;;;;50.13;21.40;;;0.80;90.30;;;;;;5037045;28;20020;-54
2021/12/20 20:51:29;;;;;;;51.78;19.80;;;0.80;90.30;;;;;;5054776;28;20104;-48
2021/12/20 20:53:56;;;;;;;41.53;20.55;;;0.60;90.30;;;;;;5054865;28;20504;-52
2021/12/20 20:56:23;;;;;;;42.35;20.75;;;0.60;90.80;;;;;;5036115;28;20549;-49
2021/12/20 20:58:51;;;;;;;46.10;20.42;;;0.60;90.80;;;;;;5054251;28;20052;-50
2021/12/20 21:01:31;;;;;;;57.17;19.08;;;0.50;90.70;;;;;;5055046;28;20060;-50
2021/12/20 21:04:01;;;;;;;53.42;19.20;;;0.50;90.80;;;;;;5036380;28;20504;-51
2021/12/20 21:06:29;;;;;;;48.95;18.10;;;0.40;90.80;;;;;;5054380;28;20037;-50
2021/12/20 21:08:55;;;;;;;44.45;20.15;;;0.30;91.10;;;;;;5037036;28;20021;-51
2021/12/20 21:11:21;;;;;;;45.60;18.45;;;0.30;91.30;;;;;;5054115;28;20025;-52
2021/12/20 21:13:47;;;;;;;48.90;18.80;;;0.10;91.40;;;;;;5054350;28;20489;-49
2021/12/20 21:16:13;;;;;;;45.25;20.25;;;0.10;91.70;;;;;;5054023;28;20048;-50
2021/12/20 21:18:39;;;;;;;40.17;18.48;;;0.30;91.80;;;;;;5036037;28;20029;-52
2021/12/20 21:21:07;;;;;;;46.10;20.88;;;0.20;91.30;;;;;;5054061;28;20159;-51
2021/12/20 21:23:33;;;;;;;50.83;19.98;;;0.30;91.30;;;;;;5053911;28;20105;-49
2021/12/20 21:26:00;;;;;;;46.22;19.80;;;0.10;91.20;;;;;;5054061;28;20417;-49
2021/12/20 21:28:26;;;;;;;52.40;19.60;;;0.10;91.40;;;;;;5036308;28;20123;-49
2021/12/20 21:30:52;;;;;;;49.60;20.90;;;0.00;91.40;;;;;;5053955;28;20435;-49
2021/12/20 21:33:20;;;;;;;45.47;18.48;;;0.00;91.60;;;;;;5053881;28;20025;-50
2021/12/20 21:35:47;;;;;;;53.78;20.88;;;0.00;91.90;;;;;;5053854;28;20338;-48
2021/12/20 21:38:14;;;;;;;49.47;21.08;;;-3276.70;92.00;;;;;;5054020;28;20099;-49
2021/12/20 21:40:46;;;;;;;43.88;20.23;;;-3276.70;92.10;;;;;;5058941;28;20023;-53
2021/12/20 21:43:14;;;;;;;57.22;20.77;;;-3276.70;92.20;;;;;;5041291;28;20025;-49
2021/12/20 21:45:39;;;;;;;47.88;21.17;;;-3276.60;92.10;;;;;;5054035;28;20412;-50
2021/12/20 21:48:06;;;;;;;53.10;19.58;;;-3276.70;92.20;;;;;;5035859;28;20115;-50
2021/12/20 21:50:32;;;;;;;35.65;16.48;;;-3276.60;92.10;;;;;;5036061;28;20492;-50
2021/12/20 21:52:58;;;;;;;49.70;19.00;;;-3276.60;92.10;;;;;;5053911;28;20029;-50
2021/12/20 21:55:23;;;;;;;49.15;18.70;;;-3276.60;92.00;;;;;;5053670;28;20021;-48
2021/12/20 21:57:49;;;;;;;40.80;19.20;;;-3276.60;92.00;;;;;;5054284;28;20538;-50
2021/12/20 22:00:15;;;;;;;46.75;19.15;;;-3276.60;92.00;;;;;;5053287;28;20036;-49
2021/12/20 22:02:41;;;;;;;57.72;20.05;;;-3276.40;92.00;;;;;;5053296;28;20059;-47
2021/12/20 22:05:07;;;;;;;47.13;18.00;;;-3276.30;92.30;;;;;;5053556;28;20037;-48
2021/12/20 22:07:33;;;;;;;42.95;19.13;;;-3276.50;92.50;;;;;;5054861;28;20350;-50
2021/12/20 22:09:59;;;;;;;53.45;21.55;;;-3276.50;92.30;;;;;;5053706;28;20032;-50
2021/12/20 22:12:25;;;;;;;61.63;20.58;;;-3276.50;92.10;;;;;;5053971;28;20101;-48
2021/12/20 22:14:50;;;;;;;50.40;19.70;;;-3276.40;92.00;;;;;;5054256;28;20120;-48
2021/12/20 22:17:16;;;;;;;55.88;20.55;;;-3276.40;92.10;;;;;;5053524;28;20028;-48
2021/12/20 22:19:42;;;;;;;62.15;22.33;;;-3276.40;92.00;;;;;;5053236;28;20021;-47
2021/12/20 22:22:08;;;;;;;68.68;26.10;;;-3276.40;92.00;;;;;;5053236;28;20082;-52
2021/12/20 22:24:33;;;;;;;66.32;24.05;;;-3276.30;92.00;;;;;;5057789;28;20086;-50
2021/12/20 22:26:59;;;;;;;68.13;24.77;;;-3276.20;92.10;;;;;;5057759;28;20028;-48
2021/12/20 22:29:25;;;;;;;67.75;25.02;;;-3276.20;92.40;;;;;;5038994;28;20067;-52
2021/12/20 22:31:51;;;;;;;66.32;23.83;;;-3276.20;92.50;;;;;;5057092;28;20222;-51
2021/12/20 22:34:17;;;;;;;77.78;26.92;;;-3276.20;92.40;;;;;;5056597;28;20029;-49
2021/12/20 22:36:42;;;;;;;84.93;28.80;;;-3276.20;92.20;;;;;;5057198;28;20052;-50
2021/12/20 22:39:08;;;;;;;64.72;25.17;;;-3276.20;92.20;;;;;;5057354;28;20036;-48
2021/12/20 22:41:34;;;;;;;71.80;23.98;;;-3276.10;92.00;;;;;;5057063;28;20422;-49
2021/12/20 22:44:00;;;;;;;73.65;24.50;;;-3276.10;92.00;;;;;;5057148;28;20064;-49